Time;durP1;ratioP1;P1;durP2;ratioP2;P2;SDS_P1;SDS_P2;PMS_P1;PMS_P2;Temp;Humidity;BMP_temperature;BMP_pressure;BME280_temperature;BME280_humidity;BME280_pressure;Samples;Min_cycle;Max_cycle;Signal;HPM_P1;HPM_P2
2022/08/27 00:00:15;;;;;;;6.00;5.40;;;20.40;77.00;;;;;;5076928;28;20475;-71
2022/08/27 00:02:42;;;;;;;5.65;4.85;;;20.30;76.90;;;;;;5076577;28;20475;-70
2022/08/27 00:05:10;;;;;;;5.78;4.47;;;20.20;77.30;;;;;;5080084;28;20541;-71
2022/08/27 00:07:38;;;;;;;5.17;4.40;;;20.20;77.90;;;;;;5082090;28;20433;-71
2022/08/27 00:10:07;;;;;;;6.90;4.70;;;20.20;77.90;;;;;;5078336;28;20433;-71
2022/08/27 00:12:34;;;;;;;5.75;4.50;;;20.20;77.50;;;;;;5080851;28;20846;-71
2022/08/27 00:15:02;;;;;;;4.43;4.03;;;20.10;77.80;;;;;;5079762;28;20433;-71
2022/08/27 00:17:29;;;;;;;6.07;4.50;;;20.10;78.40;;;;;;5081635;28;20791;-72
2022/08/27 00:19:55;;;;;;;4.60;4.20;;;20.00;78.50;;;;;;5081039;28;20437;-71
2022/08/27 00:22:22;;;;;;;5.28;4.30;;;20.00;79.00;;;;;;5080194;28;20430;-71
2022/08/27 00:24:50;;;;;;;4.87;4.37;;;20.00;79.00;;;;;;5078490;28;20523;-71
2022/08/27 00:27:17;;;;;;;4.03;3.72;;;20.00;79.00;;;;;;5076694;28;20757;-71
2022/08/27 00:29:44;;;;;;;4.40;4.00;;;20.00;78.90;;;;;;5076471;28;20441;-70
2022/08/27 00:32:11;;;;;;;4.60;4.20;;;20.00;79.00;;;;;;5077977;28;20852;-71
2022/08/27 00:34:38;;;;;;;4.20;3.80;;;19.90;79.10;;;;;;5073269;28;20812;-70
2022/08/27 00:37:05;;;;;;;4.93;4.15;;;20.00;79.00;;;;;;5082872;28;20426;-71
2022/08/27 00:39:32;;;;;;;5.47;5.07;;;19.90;79.10;;;;;;5076079;28;20486;-72
2022/08/27 00:42:00;;;;;;;6.22;5.70;;;19.90;79.40;;;;;;5074563;28;20508;-72
2022/08/27 00:44:28;;;;;;;7.40;6.80;;;19.90;79.70;;;;;;5074786;28;20483;-71
2022/08/27 00:46:59;;;;;;;8.77;8.00;;;19.90;79.70;;;;;;5078199;28;20870;-71
2022/08/27 00:49:38;;;;;;;10.60;9.80;;;19.90;79.50;;;;;;5079098;28;20451;-71
2022/08/27 00:52:08;;;;;;;11.57;10.57;;;19.90;79.60;;;;;;5082257;28;20472;-70
2022/08/27 00:54:35;;;;;;;13.70;12.60;;;19.80;79.80;;;;;;5079583;28;20508;-71
2022/08/27 00:57:03;;;;;;;14.97;13.77;;;19.90;80.00;;;;;;5074077;28;20428;-71
2022/08/27 00:59:31;;;;;;;16.10;14.80;;;19.80;80.20;;;;;;5078012;28;20437;-71
2022/08/27 01:04:46;;;;;;;16.05;14.85;;;19.80;83.00;;;;;;5072642;28;20477;-71
2022/08/27 01:07:14;;;;;;;15.07;13.87;;;19.70;83.30;;;;;;5080807;28;20515;-71
2022/08/27 01:09:42;;;;;;;15.35;14.02;;;19.70;84.10;;;;;;5075044;28;20972;-72
2022/08/27 01:12:11;;;;;;;13.65;12.55;;;19.70;84.50;;;;;;5074223;28;20434;-70
2022/08/27 01:14:38;;;;;;;12.98;12.07;;;19.70;84.10;;;;;;5078547;28;20445;-71
2022/08/27 01:17:07;;;;;;;13.32;12.20;;;19.60;85.10;;;;;;5081231;28;20445;-71
2022/08/27 01:19:38;;;;;;;11.23;10.32;;;19.60;84.80;;;;;;5083320;28;20788;-70
2022/08/27 01:22:11;;;;;;;11.93;11.02;;;19.60;84.80;;;;;;5085519;28;20919;-69
2022/08/27 01:24:42;;;;;;;15.55;14.35;;;19.50;84.50;;;;;;5077556;28;20471;-70
2022/08/27 01:27:12;;;;;;;18.17;16.77;;;19.50;84.50;;;;;;5074115;28;20540;-70
2022/08/27 01:29:39;;;;;;;19.63;18.02;;;19.40;84.90;;;;;;5079700;28;20906;-70
2022/08/27 01:32:09;;;;;;;22.50;20.60;;;19.40;87.50;;;;;;5078303;28;20428;-70
2022/08/27 01:34:37;;;;;;;25.10;23.00;;;19.40;87.40;;;;;;5076724;28;20508;-69
2022/08/27 01:37:05;;;;;;;26.70;24.30;;;19.40;88.00;;;;;;5084318;28;20528;-70
2022/08/27 01:39:32;;;;;;;31.90;29.00;;;19.30;87.50;;;;;;5082829;28;20434;-69
2022/08/27 01:42:05;;;;;;;35.60;32.50;;;19.30;87.10;;;;;;5085300;28;20940;-71
2022/08/27 01:44:46;;;;;;;37.85;34.55;;;19.20;88.10;;;;;;5085118;28;21122;-70
2022/08/27 01:47:13;;;;;;;38.53;35.03;;;19.20;88.80;;;;;;5076995;28;20443;-71
2022/08/27 01:49:40;;;;;;;37.77;34.47;;;19.20;89.20;;;;;;5075008;28;20525;-70
2022/08/27 01:52:07;;;;;;;39.88;36.28;;;19.10;89.30;;;;;;5077354;28;20456;-72
2022/08/27 01:54:34;;;;;;;41.63;37.83;;;19.10;89.10;;;;;;5078287;28;20432;-69
2022/08/27 01:57:00;;;;;;;41.42;37.63;;;19.00;89.50;;;;;;5076612;28;20441;-73
2022/08/27 01:59:29;;;;;;;43.03;39.13;;;19.00;89.60;;;;;;5080967;28;20887;-71
2022/08/27 02:01:56;;;;;;;41.28;37.58;;;19.00;88.90;;;;;;5083957;28;20422;-69
2022/08/27 02:04:23;;;;;;;40.22;36.63;;;19.00;88.90;;;;;;5078151;28;20431;-71
2022/08/27 02:06:50;;;;;;;39.70;36.10;;;18.90;89.50;;;;;;5075881;28;20431;-71
2022/08/27 02:09:17;;;;;;;38.70;35.20;;;18.90;89.50;;;;;;5072189;28;20444;-71
2022/08/27 02:11:44;;;;;;;37.20;33.80;;;18.90;89.60;;;;;;5075557;28;20437;-72
2022/08/27 02:14:11;;;;;;;36.33;33.03;;;18.90;89.50;;;;;;5082086;28;20923;-72
2022/08/27 02:16:40;;;;;;;36.03;32.70;;;18.90;89.10;;;;;;5082544;28;20553;-71
2022/08/27 02:19:07;;;;;;;35.83;32.70;;;18.90;88.50;;;;;;5078307;28;21058;-70
2022/08/27 02:21:34;;;;;;;35.67;32.47;;;18.90;88.90;;;;;;5075561;28;20427;-71
2022/08/27 02:24:01;;;;;;;35.45;32.42;;;18.90;88.50;;;;;;5079905;28;20815;-73
2022/08/27 02:26:28;;;;;;;35.92;32.72;;;18.90;88.00;;;;;;5080804;28;20815;-71
2022/08/27 02:28:55;;;;;;;36.92;33.63;;;18.90;88.10;;;;;;5082668;28;20452;-72
2022/08/27 02:31:23;;;;;;;36.50;33.20;;;18.80;87.60;;;;;;5076021;28;20510;-71
2022/08/27 02:33:51;;;;;;;37.22;33.80;;;18.80;88.60;;;;;;5073616;28;20427;-71
2022/08/27 02:36:18;;;;;;;36.65;33.35;;;18.80;88.80;;;;;;5082213;28;20517;-71
2022/08/27 02:38:45;;;;;;;35.05;31.85;;;18.90;88.40;;;;;;5075102;28;20426;-71
2022/08/27 02:41:13;;;;;;;36.95;33.55;;;18.90;88.20;;;;;;5073876;28;20427;-71
2022/08/27 02:43:39;;;;;;;35.28;31.77;;;18.90;87.10;;;;;;5079726;28;20853;-72
2022/08/27 02:46:06;;;;;;;35.67;32.38;;;18.90;87.50;;;;;;5075002;28;20907;-72
2022/08/27 02:48:36;;;;;;;35.05;31.85;;;18.90;86.80;;;;;;5078128;28;20447;-71
2022/08/27 02:51:04;;;;;;;37.03;33.53;;;18.90;87.00;;;;;;5075333;28;20434;-71
2022/08/27 02:53:31;;;;;;;36.17;32.80;;;18.90;86.30;;;;;;5082893;28;20834;-72
2022/08/27 02:55:59;;;;;;;33.70;30.60;;;18.90;86.40;;;;;;5078163;28;20430;-72
2022/08/27 02:58:26;;;;;;;33.97;30.98;;;18.90;86.70;;;;;;5133873;22;20434;-77
2022/08/27 03:00:53;;;;;;;33.83;30.75;;;18.90;86.00;;;;;;5143097;27;20482;-76
2022/08/27 03:03:19;;;;;;;33.65;30.45;;;18.90;85.90;;;;;;5146486;27;20446;-78
2022/08/27 03:05:46;;;;;;;32.83;29.75;;;18.90;85.60;;;;;;5142858;27;20505;-76
2022/08/27 03:08:15;;;;;;;32.70;29.70;;;18.90;85.30;;;;;;5126273;27;20488;-76
2022/08/27 03:10:41;;;;;;;31.85;28.85;;;19.00;84.90;;;;;;5126132;27;20438;-77
2022/08/27 03:13:10;;;;;;;32.55;29.40;;;19.00;84.30;;;;;;5121367;28;20420;-77
2022/08/27 03:15:36;;;;;;;32.53;29.33;;;19.00;84.00;;;;;;5121955;28;20428;-78
2022/08/27 03:18:18;;;;;;;31.23;28.33;;;19.00;83.70;;;;;;5102159;28;20433;-77
2022/08/27 03:20:48;;;;;;;31.38;28.38;;;19.00;83.60;;;;;;5111274;28;20423;-76
2022/08/27 03:23:17;;;;;;;30.00;27.23;;;19.00;83.30;;;;;;5117705;28;20436;-77
2022/08/27 03:25:50;;;;;;;29.23;26.50;;;19.00;82.90;;;;;;5114231;28;20873;-76
2022/08/27 03:28:17;;;;;;;29.65;26.75;;;18.90;82.60;;;;;;5104745;28;20430;-76
2022/08/27 03:30:47;;;;;;;30.08;27.27;;;19.00;82.70;;;;;;5108695;28;20427;-77
2022/08/27 03:33:14;;;;;;;28.60;26.00;;;19.00;82.70;;;;;;5112364;28;20442;-77
2022/08/27 03:35:41;;;;;;;29.30;26.60;;;19.00;82.80;;;;;;5110694;28;20438;-79
2022/08/27 03:38:07;;;;;;;28.15;25.52;;;18.90;82.40;;;;;;5106970;28;20454;-76
2022/08/27 03:40:36;;;;;;;28.17;25.48;;;18.90;82.50;;;;;;5113763;28;20445;-77
2022/08/27 03:43:04;;;;;;;27.95;25.45;;;18.90;82.60;;;;;;5104312;28;20518;-77
2022/08/27 03:45:30;;;;;;;26.83;24.33;;;18.90;82.10;;;;;;5096758;28;20460;-77
2022/08/27 03:47:57;;;;;;;24.90;22.60;;;18.90;82.00;;;;;;5108966;28;20434;-78
2022/08/27 03:50:24;;;;;;;23.97;21.87;;;18.90;81.70;;;;;;5103830;28;20494;-77
2022/08/27 03:52:51;;;;;;;23.00;20.73;;;18.90;81.60;;;;;;5110969;28;20428;-77
2022/08/27 03:55:18;;;;;;;23.75;21.35;;;18.90;81.10;;;;;;5116355;28;20432;-77
2022/08/27 03:57:46;;;;;;;21.10;19.20;;;18.90;81.50;;;;;;5115796;28;20708;-80
2022/08/27 04:00:14;;;;;;;20.88;19.08;;;18.90;81.30;;;;;;5108253;28;20522;-77
2022/08/27 04:02:41;;;;;;;18.10;16.40;;;18.90;80.90;;;;;;5117566;28;20431;-77
2022/08/27 04:05:09;;;;;;;18.30;16.50;;;18.90;80.90;;;;;;5103898;28;20879;-78
2022/08/27 04:07:37;;;;;;;16.10;14.55;;;18.80;80.50;;;;;;5107535;28;20435;-79
2022/08/27 04:10:05;;;;;;;16.20;14.80;;;18.90;80.50;;;;;;5110382;28;20478;-78
2022/08/27 04:12:32;;;;;;;16.30;14.80;;;18.80;80.40;;;;;;5108093;28;20427;-77
2022/08/27 04:15:00;;;;;;;16.13;14.52;;;18.80;80.40;;;;;;5109110;28;20455;-77
2022/08/27 04:17:27;;;;;;;15.70;14.20;;;18.90;80.30;;;;;;5112945;28;20884;-76
2022/08/27 04:19:54;;;;;;;15.95;14.52;;;18.90;80.50;;;;;;5107998;28;20466;-78
2022/08/27 04:22:22;;;;;;;15.93;14.43;;;18.90;79.80;;;;;;5113520;28;20419;-78
2022/08/27 04:24:49;;;;;;;16.17;14.60;;;19.00;79.70;;;;;;5102859;28;20436;-77
2022/08/27 04:27:16;;;;;;;18.30;16.60;;;18.90;79.30;;;;;;5096314;28;20910;-76
2022/08/27 04:29:43;;;;;;;18.42;16.73;;;18.90;79.70;;;;;;5106611;28;20527;-77
2022/08/27 04:32:12;;;;;;;17.00;15.30;;;19.00;79.30;;;;;;5092556;28;20419;-76
2022/08/27 04:34:39;;;;;;;17.23;15.53;;;19.00;79.20;;;;;;5112618;28;20524;-77
2022/08/27 04:37:06;;;;;;;15.40;14.00;;;19.00;78.80;;;;;;5109015;28;20436;-76
2022/08/27 04:39:33;;;;;;;16.33;14.82;;;19.00;78.80;;;;;;5104250;28;20958;-76
2022/08/27 04:42:01;;;;;;;16.80;15.30;;;19.20;78.50;;;;;;5109079;28;20420;-76
2022/08/27 04:44:32;;;;;;;15.80;14.30;;;19.20;77.80;;;;;;5108254;28;20433;-76
2022/08/27 04:47:00;;;;;;;14.60;13.20;;;19.20;78.00;;;;;;5105376;28;20428;-78
2022/08/27 04:49:29;;;;;;;13.83;12.53;;;19.10;78.60;;;;;;5107690;28;20430;-79
2022/08/27 04:51:57;;;;;;;13.73;12.10;;;19.00;78.60;;;;;;5111086;28;20417;-77
2022/08/27 04:54:24;;;;;;;12.23;11.10;;;19.00;79.00;;;;;;5117650;28;22130;-75
2022/08/27 04:56:51;;;;;;;11.63;10.48;;;19.00;79.20;;;;;;5115938;28;20431;-79
2022/08/27 04:59:18;;;;;;;11.00;9.90;;;19.00;79.00;;;;;;5114585;28;20435;-80
2022/08/27 05:01:45;;;;;;;10.70;9.80;;;19.00;78.60;;;;;;5113565;28;20491;-78
2022/08/27 05:04:14;;;;;;;10.80;9.80;;;19.00;79.00;;;;;;5114238;28;20431;-78
2022/08/27 05:06:44;;;;;;;10.45;9.52;;;18.90;78.80;;;;;;5111006;28;20462;-79
2022/08/27 05:09:11;;;;;;;10.38;9.48;;;18.90;79.50;;;;;;5108287;28;20505;-78
2022/08/27 05:11:38;;;;;;;10.90;9.82;;;18.90;79.30;;;;;;5119517;28;20408;-76
2022/08/27 05:14:06;;;;;;;10.80;9.70;;;18.80;79.10;;;;;;5131690;28;20511;-74
2022/08/27 05:16:35;;;;;;;10.95;9.88;;;18.80;79.30;;;;;;5132344;27;20439;-75
2022/08/27 05:19:03;;;;;;;11.20;10.00;;;18.80;79.20;;;;;;5132096;28;20424;-74
2022/08/27 05:21:32;;;;;;;11.23;9.95;;;18.80;79.10;;;;;;5116297;28;20983;-76
2022/08/27 05:24:02;;;;;;;12.40;10.05;;;18.80;79.30;;;;;;5114333;28;20444;-76
2022/08/27 05:26:30;;;;;;;9.40;8.32;;;18.80;79.20;;;;;;5106793;27;20426;-75
2022/08/27 05:28:59;;;;;;;8.40;7.70;;;18.90;79.10;;;;;;5115298;28;20430;-76
2022/08/27 05:31:28;;;;;;;9.55;8.55;;;18.80;78.80;;;;;;5111785;28;20436;-76
2022/08/27 05:33:56;;;;;;;8.38;7.20;;;18.80;79.00;;;;;;5115165;28;20834;-77
2022/08/27 05:36:25;;;;;;;13.10;8.05;;;18.80;79.30;;;;;;5113392;28;20494;-77
2022/08/27 05:38:53;;;;;;;8.95;8.15;;;18.80;80.90;;;;;;5112837;28;20431;-76
2022/08/27 05:41:26;;;;;;;11.20;9.10;;;18.90;80.30;;;;;;5102631;28;20489;-76
2022/08/27 05:43:54;;;;;;;10.68;9.57;;;18.80;80.20;;;;;;5115107;28;20447;-78
2022/08/27 05:46:23;;;;;;;10.80;9.10;;;18.80;80.20;;;;;;5108215;27;20430;-77
2022/08/27 05:48:52;;;;;;;10.38;9.48;;;18.80;80.70;;;;;;5107306;28;20428;-76
2022/08/27 05:51:21;;;;;;;10.90;9.00;;;18.80;81.70;;;;;;5111505;28;20435;-78
2022/08/27 05:53:47;;;;;;;8.27;7.47;;;18.70;81.60;;;;;;5113902;27;20481;-77
2022/08/27 05:56:16;;;;;;;8.25;7.35;;;18.70;82.50;;;;;;5106250;28;20432;-77
2022/08/27 06:01:31;;;;;;;8.65;7.40;;;18.80;80.80;;;;;;5104545;28;20554;-77
2022/08/27 06:03:58;;;;;;;8.55;6.90;;;18.80;80.40;;;;;;5098611;28;20881;-76
2022/08/27 06:06:25;;;;;;;9.70;8.80;;;18.80;80.50;;;;;;5114470;27;20932;-76
2022/08/27 06:08:53;;;;;;;8.35;7.63;;;18.90;81.80;;;;;;5110382;28;20440;-76
2022/08/27 06:11:21;;;;;;;10.20;7.95;;;18.70;82.20;;;;;;5110391;28;20793;-76
2022/08/27 06:13:49;;;;;;;10.63;8.60;;;18.60;82.80;;;;;;5111551;28;20416;-78
2022/08/27 06:16:17;;;;;;;10.55;9.55;;;18.60;84.00;;;;;;5104483;27;20524;-75
2022/08/27 06:18:46;;;;;;;11.80;10.70;;;18.50;83.40;;;;;;5106889;28;20430;-77
2022/08/27 06:21:15;;;;;;;11.80;10.70;;;18.40;85.20;;;;;;5109531;27;20425;-75
2022/08/27 06:23:42;;;;;;;12.67;11.47;;;18.30;86.10;;;;;;5111442;28;20427;-78
2022/08/27 06:26:11;;;;;;;12.80;11.80;;;18.20;87.10;;;;;;5122012;28;20433;-77
2022/08/27 06:28:40;;;;;;;11.00;9.95;;;18.20;88.20;;;;;;5135482;28;20471;-76
2022/08/27 06:31:10;;;;;;;11.70;10.60;;;18.30;87.00;;;;;;5129736;28;20492;-76
2022/08/27 06:33:40;;;;;;;11.70;10.80;;;18.30;86.00;;;;;;5114244;28;20819;-76
2022/08/27 06:36:09;;;;;;;11.38;10.48;;;18.30;86.10;;;;;;5111950;28;20424;-78
2022/08/27 06:38:36;;;;;;;11.65;10.85;;;18.40;86.50;;;;;;5117280;28;20424;-76
2022/08/27 06:41:04;;;;;;;10.93;10.13;;;18.40;86.30;;;;;;5115899;28;20420;-77
2022/08/27 06:43:30;;;;;;;10.88;9.88;;;18.40;86.30;;;;;;5114536;28;20461;-78
2022/08/27 06:45:57;;;;;;;8.85;8.15;;;18.40;86.70;;;;;;5118391;27;20911;-77
2022/08/27 06:48:25;;;;;;;8.18;7.47;;;18.30;85.70;;;;;;5111442;28;20972;-77
2022/08/27 06:50:52;;;;;;;8.10;7.40;;;18.30;85.40;;;;;;5113931;28;20446;-77
2022/08/27 06:53:19;;;;;;;6.50;5.80;;;18.30;85.40;;;;;;5110583;28;20522;-77
2022/08/27 06:55:48;;;;;;;6.03;5.30;;;18.40;84.40;;;;;;5104681;28;20457;-77
2022/08/27 06:58:16;;;;;;;6.85;6.25;;;18.40;83.90;;;;;;5105145;28;20491;-77
2022/08/27 07:00:43;;;;;;;6.83;6.30;;;18.60;83.40;;;;;;5105415;28;20427;-78
2022/08/27 07:03:11;;;;;;;6.93;6.28;;;18.60;83.60;;;;;;5108646;28;20433;-77
2022/08/27 07:05:40;;;;;;;6.50;5.90;;;18.50;83.50;;;;;;5104899;28;20538;-75
2022/08/27 07:08:08;;;;;;;7.70;7.00;;;18.30;84.30;;;;;;5102168;28;20941;-77
2022/08/27 07:10:36;;;;;;;6.68;6.03;;;18.40;85.20;;;;;;5106877;28;20489;-77
2022/08/27 07:13:03;;;;;;;7.20;6.57;;;18.40;84.90;;;;;;5114090;28;20425;-77
2022/08/27 07:15:30;;;;;;;8.10;7.25;;;18.40;84.50;;;;;;5109294;28;20821;-76
2022/08/27 07:17:57;;;;;;;7.68;6.88;;;18.40;83.90;;;;;;5112753;28;20440;-76
2022/08/27 07:20:25;;;;;;;8.07;7.38;;;18.30;84.20;;;;;;5107491;28;21143;-76
2022/08/27 07:22:57;;;;;;;8.27;7.50;;;18.30;86.70;;;;;;5109181;28;20427;-77
2022/08/27 07:25:25;;;;;;;8.00;7.37;;;18.20;85.90;;;;;;5107363;27;20432;-75
2022/08/27 07:27:52;;;;;;;8.50;7.70;;;18.20;86.00;;;;;;5110313;28;20428;-75
2022/08/27 07:30:19;;;;;;;8.30;7.50;;;18.10;86.30;;;;;;5109996;28;20967;-77
2022/08/27 07:32:46;;;;;;;8.00;7.20;;;18.20;85.70;;;;;;5099623;28;20439;-76
2022/08/27 07:35:14;;;;;;;6.50;5.90;;;18.30;84.60;;;;;;5109355;28;20428;-76
2022/08/27 07:37:41;;;;;;;9.35;7.10;;;18.50;83.80;;;;;;5106986;28;20422;-77
2022/08/27 07:40:13;;;;;;;7.18;6.47;;;18.50;84.90;;;;;;5109696;28;20478;-78
2022/08/27 07:45:25;;;;;;;7.35;6.75;;;18.50;83.40;;;;;;5104976;28;20411;-75
2022/08/27 07:47:52;;;;;;;7.28;6.68;;;18.50;83.90;;;;;;5103955;27;20814;-77
2022/08/27 07:50:20;;;;;;;7.80;7.00;;;18.50;83.90;;;;;;5110623;27;20418;-75
2022/08/27 07:52:47;;;;;;;6.30;5.70;;;18.40;84.80;;;;;;5119201;27;20404;-76
2022/08/27 07:55:15;;;;;;;6.15;5.55;;;18.50;83.90;;;;;;5124294;28;20477;-78
2022/08/27 07:57:43;;;;;;;6.28;5.75;;;18.50;82.90;;;;;;5116924;28;20428;-76
2022/08/27 08:00:11;;;;;;;5.53;5.07;;;18.60;82.60;;;;;;5126416;28;20462;-77
2022/08/27 08:02:39;;;;;;;7.35;6.55;;;18.80;81.30;;;;;;5125470;28;20420;-76
2022/08/27 08:05:07;;;;;;;7.00;6.40;;;18.90;81.70;;;;;;5109689;27;20429;-75
2022/08/27 08:07:37;;;;;;;7.60;6.90;;;18.80;81.40;;;;;;5107478;28;20420;-77
2022/08/27 08:10:04;;;;;;;8.30;7.60;;;18.60;82.80;;;;;;5112709;28;20531;-78
2022/08/27 08:12:35;;;;;;;7.80;7.10;;;18.50;84.10;;;;;;5110095;28;20424;-79
2022/08/27 08:15:02;;;;;;;7.20;6.60;;;18.40;85.00;;;;;;5097980;28;20424;-80
2022/08/27 08:17:28;;;;;;;7.68;7.03;;;18.40;84.10;;;;;;5105166;28;20473;-79
2022/08/27 08:19:56;;;;;;;6.88;6.25;;;18.40;83.40;;;;;;5105952;28;20463;-78
2022/08/27 08:22:23;;;;;;;8.48;7.78;;;18.50;83.40;;;;;;5103026;28;22138;-77
2022/08/27 08:24:50;;;;;;;7.70;7.00;;;18.50;83.80;;;;;;5103561;28;20952;-77
2022/08/27 08:27:18;;;;;;;8.68;7.88;;;18.40;84.60;;;;;;5102280;28;20843;-76
2022/08/27 08:29:47;;;;;;;8.10;7.30;;;18.40;83.60;;;;;;5107409;28;20436;-78
2022/08/27 08:32:14;;;;;;;7.93;7.30;;;18.40;83.90;;;;;;5109901;28;20431;-77
2022/08/27 08:34:41;;;;;;;7.40;6.70;;;18.40;83.90;;;;;;5102206;28;20426;-77
2022/08/27 08:37:08;;;;;;;6.60;5.90;;;18.50;83.30;;;;;;5110342;28;20456;-80
2022/08/27 08:39:35;;;;;;;7.60;6.90;;;18.60;82.70;;;;;;5104160;28;20499;-76
2022/08/27 08:42:05;;;;;;;7.60;6.95;;;18.80;82.60;;;;;;5113020;28;20428;-76
2022/08/27 08:44:36;;;;;;;8.00;7.30;;;18.80;82.40;;;;;;5100586;28;20435;-76
2022/08/27 08:47:09;;;;;;;7.15;6.55;;;18.80;82.10;;;;;;5108125;28;20491;-76
2022/08/27 08:49:49;;;;;;;6.80;6.30;;;18.80;81.60;;;;;;5105037;28;20444;-78
2022/08/27 08:52:25;;;;;;;8.38;7.30;;;18.90;81.20;;;;;;5102047;28;20418;-76
2022/08/27 08:54:54;;;;;;;7.40;6.70;;;18.90;80.60;;;;;;5105007;28;20428;-76
2022/08/27 08:57:28;;;;;;;6.80;6.10;;;18.90;81.10;;;;;;5109585;28;20926;-77
2022/08/27 09:00:01;;;;;;;7.00;6.40;;;18.90;80.60;;;;;;5103780;27;20929;-76
2022/08/27 09:02:29;;;;;;;7.60;6.80;;;19.00;80.80;;;;;;5098031;22;21206;-71
2022/08/27 09:05:01;;;;;;;7.07;6.47;;;19.00;80.40;;;;;;5061349;28;20530;-70
2022/08/27 09:07:35;;;;;;;7.53;6.93;;;19.10;79.70;;;;;;5051182;28;20914;-71
2022/08/27 09:10:10;;;;;;;8.20;5.93;;;19.10;79.30;;;;;;5059302;28;20431;-71
2022/08/27 09:12:37;;;;;;;6.22;5.63;;;19.10;79.20;;;;;;5057055;28;20434;-71
2022/08/27 09:15:09;;;;;;;7.65;6.95;;;19.20;78.90;;;;;;5058436;28;20443;-71
2022/08/27 09:17:37;;;;;;;7.63;6.93;;;19.20;78.80;;;;;;5062653;28;20933;-71
2022/08/27 09:20:06;;;;;;;7.40;6.70;;;19.20;79.40;;;;;;5069789;28;20488;-71
2022/08/27 09:22:42;;;;;;;7.05;6.40;;;19.10;79.60;;;;;;5059530;28;20532;-71
2022/08/27 09:25:16;;;;;;;6.72;5.97;;;19.20;78.90;;;;;;5064001;28;20446;-71
2022/08/27 09:27:43;;;;;;;8.10;7.30;;;19.30;78.30;;;;;;5059738;28;20423;-71
2022/08/27 09:30:13;;;;;;;8.93;8.13;;;19.40;78.20;;;;;;5063948;28;20772;-71
2022/08/27 09:32:41;;;;;;;8.20;7.00;;;19.40;77.80;;;;;;5056316;28;20419;-71
2022/08/27 09:35:11;;;;;;;9.88;8.95;;;19.40;77.80;;;;;;5057983;28;20455;-71
2022/08/27 09:37:42;;;;;;;10.90;10.00;;;19.50;77.90;;;;;;5060283;28;20496;-70
2022/08/27 09:40:16;;;;;;;11.68;10.60;;;19.50;78.10;;;;;;5060886;28;20592;-71
2022/08/27 09:42:46;;;;;;;10.70;9.80;;;19.40;77.90;;;;;;5062247;28;20442;-70
2022/08/27 09:45:15;;;;;;;10.40;9.40;;;19.40;78.20;;;;;;5059775;28;20434;-70
2022/08/27 09:47:47;;;;;;;9.60;8.70;;;19.40;77.70;;;;;;5061357;28;20594;-70
2022/08/27 09:50:17;;;;;;;9.23;8.43;;;19.40;77.80;;;;;;5053720;28;20461;-69
2022/08/27 09:52:54;;;;;;;10.73;9.82;;;19.40;77.90;;;;;;5058657;28;20463;-69
2022/08/27 09:55:29;;;;;;;11.30;10.20;;;19.30;78.80;;;;;;5063284;28;20497;-69
2022/08/27 09:57:57;;;;;;;11.20;10.07;;;19.40;78.80;;;;;;5061806;28;20502;-69
2022/08/27 10:00:33;;;;;;;10.80;9.60;;;19.40;79.20;;;;;;5065218;28;20488;-70
2022/08/27 10:03:02;;;;;;;9.82;8.93;;;19.50;78.80;;;;;;5067966;28;21282;-69
2022/08/27 10:05:31;;;;;;;9.90;8.95;;;19.60;78.00;;;;;;5078428;28;20497;-70
2022/08/27 10:08:01;;;;;;;11.03;8.60;;;19.70;77.60;;;;;;5060512;28;20552;-70
2022/08/27 10:10:41;;;;;;;10.23;9.23;;;19.70;76.90;;;;;;5062965;28;20423;-72
2022/08/27 10:13:14;;;;;;;9.57;8.57;;;19.70;77.10;;;;;;5059791;28;20417;-71
2022/08/27 10:15:52;;;;;;;9.88;8.98;;;19.70;78.00;;;;;;5061698;28;20877;-71
2022/08/27 10:18:30;;;;;;;9.10;8.30;;;19.60;78.20;;;;;;5067266;28;20425;-71
2022/08/27 10:21:05;;;;;;;9.35;8.38;;;19.60;78.10;;;;;;5066760;28;20431;-72
2022/08/27 10:23:42;;;;;;;9.30;8.40;;;19.60;78.10;;;;;;5063252;28;20986;-71
2022/08/27 10:26:17;;;;;;;8.63;7.82;;;19.70;77.40;;;;;;5061377;28;20438;-72
2022/08/27 10:29:02;;;;;;;7.90;7.30;;;19.70;77.20;;;;;;5062208;28;20910;-72
2022/08/27 10:31:38;;;;;;;8.73;7.57;;;19.80;77.10;;;;;;5068017;28;20455;-71
2022/08/27 10:34:19;;;;;;;8.93;7.78;;;19.90;77.10;;;;;;5074284;28;20480;-71
2022/08/27 10:36:59;;;;;;;9.02;8.13;;;20.00;75.30;;;;;;5058302;28;20431;-72
2022/08/27 10:39:46;;;;;;;7.90;7.10;;;19.90;75.20;;;;;;5062360;28;20518;-71
2022/08/27 10:42:21;;;;;;;7.45;6.75;;;19.80;76.00;;;;;;5056023;28;20431;-72
2022/08/27 10:44:58;;;;;;;6.97;6.28;;;19.70;76.50;;;;;;5062465;28;20481;-70
2022/08/27 10:47:45;;;;;;;9.15;6.40;;;19.70;75.30;;;;;;5057374;28;20893;-70
2022/08/27 10:50:25;;;;;;;6.93;6.32;;;19.60;75.60;;;;;;5070109;28;20422;-70
2022/08/27 10:52:59;;;;;;;8.70;6.18;;;19.70;76.30;;;;;;5060120;28;20936;-70
2022/08/27 10:55:32;;;;;;;8.48;5.30;;;19.70;76.10;;;;;;5062758;28;21562;-70
2022/08/27 10:58:26;;;;;;;4.80;4.30;;;19.80;74.90;;;;;;5060284;28;20435;-71
2022/08/27 11:01:00;;;;;;;4.90;4.40;;;20.10;73.70;;;;;;5059429;28;20454;-70
2022/08/27 11:03:32;;;;;;;5.63;4.60;;;20.30;72.40;;;;;;5064599;28;20423;-70
2022/08/27 11:06:07;;;;;;;5.45;4.20;;;20.40;71.50;;;;;;5063495;28;20466;-70
2022/08/27 11:08:39;;;;;;;5.30;4.45;;;20.50;71.00;;;;;;5065183;28;20519;-70
2022/08/27 11:11:10;;;;;;;4.80;4.30;;;20.50;70.90;;;;;;5062417;28;20425;-69
2022/08/27 11:13:41;;;;;;;5.95;4.10;;;20.60;71.00;;;;;;5055850;28;20427;-69
2022/08/27 11:16:14;;;;;;;5.10;3.90;;;20.60;70.60;;;;;;5064108;28;20427;-70
2022/08/27 11:18:46;;;;;;;5.28;4.30;;;20.70;69.50;;;;;;5059586;28;20615;-70
2022/08/27 11:21:22;;;;;;;5.85;3.40;;;20.80;69.70;;;;;;5058239;28;20431;-72
2022/08/27 11:23:54;;;;;;;7.68;3.90;;;20.80;69.10;;;;;;5052852;28;20439;-69
2022/08/27 11:26:21;;;;;;;6.63;3.33;;;20.80;69.40;;;;;;5053707;28;20443;-71
2022/08/27 11:28:51;;;;;;;4.85;3.67;;;20.90;68.90;;;;;;5067290;28;20459;-69
2022/08/27 11:31:25;;;;;;;5.45;3.97;;;21.00;68.30;;;;;;5058479;28;20431;-72
2022/08/27 11:33:59;;;;;;;4.32;3.10;;;21.10;68.10;;;;;;5058618;28;20770;-69
2022/08/27 11:37:14;;;;;;;4.97;3.70;;;21.20;67.60;;;;;;5061143;28;20805;-72
2022/08/27 11:40:02;;;;;;;4.05;3.60;;;21.30;66.60;;;;;;4975028;28;20449;-70
2022/08/27 11:42:37;;;;;;;4.70;3.90;;;21.50;66.10;;;;;;5046264;28;20568;-70
2022/08/27 11:45:07;;;;;;;5.35;3.83;;;21.50;66.00;;;;;;5061095;28;20427;-71
2022/08/27 11:47:34;;;;;;;6.93;4.60;;;21.40;65.80;;;;;;5057463;28;20463;-71
2022/08/27 11:50:06;;;;;;;4.75;4.30;;;21.50;65.70;;;;;;5066630;28;20448;-70
2022/08/27 11:52:38;;;;;;;6.20;4.80;;;21.50;66.20;;;;;;5076145;28;20414;-70
2022/08/27 11:55:24;;;;;;;5.70;5.10;;;21.50;65.90;;;;;;5062323;28;20424;-71
2022/08/27 11:58:04;;;;;;;5.75;5.03;;;21.60;65.60;;;;;;5063441;28;20494;-71
2022/08/27 12:00:34;;;;;;;5.85;5.10;;;21.60;64.70;;;;;;5064036;28;20430;-70
2022/08/27 12:03:03;;;;;;;5.63;5.22;;;21.80;64.10;;;;;;5064081;28;20415;-70
2022/08/27 12:05:37;;;;;;;6.65;4.80;;;21.90;64.40;;;;;;5057999;28;20936;-72
2022/08/27 12:08:15;;;;;;;4.70;4.30;;;21.90;63.10;;;;;;5062435;28;20427;-72
2022/08/27 12:10:58;;;;;;;6.82;5.13;;;22.00;62.70;;;;;;5053218;28;20426;-72
2022/08/27 12:13:34;;;;;;;6.00;5.03;;;22.00;62.70;;;;;;5063139;28;20524;-72
2022/08/27 12:16:15;;;;;;;5.95;5.45;;;22.00;62.50;;;;;;5063892;28;20443;-72
2022/08/27 12:18:56;;;;;;;6.13;5.43;;;22.10;62.20;;;;;;5060298;28;20850;-72
2022/08/27 12:21:33;;;;;;;7.25;6.55;;;22.20;62.30;;;;;;5059725;28;20428;-72
2022/08/27 12:24:31;;;;;;;6.55;5.95;;;22.40;60.90;;;;;;5062414;28;20470;-72
2022/08/27 12:27:03;;;;;;;6.72;6.13;;;22.50;60.10;;;;;;5060483;28;20419;-72
2022/08/27 12:29:39;;;;;;;7.70;7.20;;;22.40;60.20;;;;;;5062165;28;20518;-72
2022/08/27 12:32:25;;;;;;;7.93;7.22;;;22.40;60.00;;;;;;5063583;28;20411;-72
2022/08/27 12:34:59;;;;;;;8.20;7.40;;;22.40;60.60;;;;;;5062292;28;20432;-70
2022/08/27 12:37:28;;;;;;;6.40;5.90;;;22.40;61.20;;;;;;5055908;28;20738;-72
2022/08/27 12:39:58;;;;;;;6.60;6.00;;;22.50;60.20;;;;;;5064254;28;21041;-70
2022/08/27 12:42:26;;;;;;;5.70;5.15;;;22.50;59.80;;;;;;5066434;28;20418;-73
2022/08/27 12:44:58;;;;;;;5.90;5.40;;;22.60;58.90;;;;;;5061853;28;20431;-72
2022/08/27 12:47:25;;;;;;;5.78;5.28;;;22.50;59.30;;;;;;5062849;28;20858;-72
2022/08/27 12:49:56;;;;;;;5.33;4.90;;;22.30;59.70;;;;;;5057039;28;20792;-72
2022/08/27 12:52:57;;;;;;;5.53;5.00;;;22.40;59.70;;;;;;5064297;28;20408;-72
2022/08/27 12:55:35;;;;;;;5.53;5.03;;;22.40;60.10;;;;;;5059016;28;20458;-72
2022/08/27 12:58:11;;;;;;;5.57;5.18;;;22.40;59.90;;;;;;5054450;28;20511;-72
2022/08/27 13:00:55;;;;;;;6.82;5.30;;;22.40;59.60;;;;;;5062364;28;20476;-72